Time;durP1;ratioP1;P1;durP2;ratioP2;P2;SDS_P1;SDS_P2;PMS_P1;PMS_P2;Temp;Humidity;BMP_temperature;BMP_pressure;BME280_temperature;BME280_humidity;BME280_pressure;Samples;Min_cycle;Max_cycle;Signal;HPM_P1;HPM_P2
2022/07/02 00:02:00;;;;;;;4.22;0.98;;;;;;;15.22;100.00;100553.84;5097062;28;20480;-88
2022/07/02 00:04:31;;;;;;;2.63;0.98;;;;;;;15.16;100.00;100554.25;5086253;28;20067;-88
2022/07/02 00:06:58;;;;;;;2.45;0.93;;;;;;;15.28;100.00;100556.16;5094531;28;20044;-88
2022/07/02 00:09:28;;;;;;;2.30;0.80;;;;;;;15.37;100.00;100531.84;5097956;28;20489;-89
2022/07/02 00:11:58;;;;;;;1.73;0.80;;;;;;;15.61;100.00;100539.19;5094193;28;20100;-88
2022/07/02 00:14:25;;;;;;;1.42;0.80;;;;;;;15.70;100.00;100550.97;5077033;28;20048;-88
2022/07/02 00:16:54;;;;;;;2.03;0.75;;;;;;;15.28;100.00;100531.53;5092655;28;20592;-88
2022/07/02 00:19:22;;;;;;;2.20;0.90;;;;;;;15.33;100.00;100569.91;5096253;28;20052;-88
2022/07/02 00:21:49;;;;;;;1.83;0.90;;;;;;;15.26;100.00;100547.44;5088404;28;20282;-88
2022/07/02 00:24:16;;;;;;;1.10;0.80;;;;;;;15.39;100.00;100558.13;5083071;28;20048;-88
2022/07/02 00:26:52;;;;;;;1.75;0.80;;;;;;;15.61;100.00;100562.09;5096752;28;20071;-88
2022/07/02 00:29:38;;;;;;;2.70;0.90;;;;;;;15.65;100.00;100561.81;5096103;28;20142;-88
2022/07/02 00:32:05;;;;;;;2.67;1.30;;;;;;;15.66;100.00;100534.47;5095786;28;20048;-89
2022/07/02 00:34:38;;;;;;;2.05;0.70;;;;;;;15.75;100.00;100548.91;5097623;28;20097;-88
2022/07/02 00:37:08;;;;;;;1.15;0.80;;;;;;;15.87;100.00;100556.06;5096639;28;20058;-88
2022/07/02 00:39:35;;;;;;;1.92;0.60;;;;;;;15.71;100.00;100550.88;5079564;28;20051;-88
2022/07/02 00:42:04;;;;;;;1.75;0.70;;;;;;;15.53;100.00;100528.28;5091929;28;20046;-89
2022/07/02 00:44:31;;;;;;;1.00;0.70;;;;;;;15.76;100.00;100542.72;5099469;28;20541;-88
2022/07/02 00:47:09;;;;;;;1.13;0.70;;;;;;;15.73;100.00;100532.31;5096031;28;20469;-88
2022/07/02 00:49:38;;;;;;;1.80;0.80;;;;;;;15.69;100.00;100539.56;5077458;28;20043;-89
2022/07/02 00:52:06;;;;;;;0.82;0.70;;;;;;;15.52;100.00;100547.66;5105348;28;20047;-89
2022/07/02 00:54:38;;;;;;;2.60;0.77;;;;;;;15.26;100.00;100536.06;5096967;28;20127;-88
2022/07/02 00:57:06;;;;;;;1.40;0.80;;;;;;;15.12;100.00;100529.84;5095919;28;20044;-88
2022/07/02 00:59:33;;;;;;;1.90;0.80;;;;;;;15.19;100.00;100539.06;5078691;28;20052;-88
2022/07/02 01:02:00;;;;;;;1.77;0.90;;;;;;;15.11;100.00;100516.75;5096853;28;20044;-88
2022/07/02 01:04:31;;;;;;;1.83;0.80;;;;;;;15.00;100.00;100517.38;5096733;28;20633;-88
2022/07/02 01:07:03;;;;;;;1.88;0.90;;;;;;;15.25;100.00;100537.84;5092039;28;20390;-88
2022/07/02 01:12:24;;;;;;;2.35;0.80;;;;;;;15.25;100.00;100531.75;5096402;28;20047;-88
2022/07/02 01:14:52;;;;;;;1.23;0.70;;;;;;;15.17;100.00;100498.78;5083490;28;20131;-88
2022/07/02 01:17:19;;;;;;;2.28;0.80;;;;;;;15.37;100.00;100520.44;5091685;28;20074;-88
2022/07/02 01:19:47;;;;;;;1.40;0.70;;;;;;;15.16;100.00;100512.88;5094692;28;20060;-89
2022/07/02 01:22:31;;;;;;;3.75;0.80;;;;;;;15.27;100.00;100524.56;5117694;27;20058;-89
2022/07/02 01:24:58;;;;;;;3.63;0.82;;;;;;;15.36;100.00;100534.56;5096186;28;20054;-89
2022/07/02 01:27:25;;;;;;;2.80;0.90;;;;;;;15.11;100.00;100507.03;5095354;28;20138;-88
2022/07/02 01:29:52;;;;;;;3.17;1.00;;;;;;;15.01;100.00;100524.34;5096107;28;20120;-88
2022/07/02 01:32:19;;;;;;;2.47;0.90;;;;;;;15.10;100.00;100523.81;5090665;28;20077;-89
2022/07/02 01:34:51;;;;;;;2.63;1.00;;;;;;;15.25;100.00;100526.47;5082149;28;20047;-87
2022/07/02 01:37:20;;;;;;;1.93;0.90;;;;;;;15.21;100.00;100520.53;5095123;28;20044;-89
2022/07/02 01:39:48;;;;;;;1.42;0.80;;;;;;;15.15;100.00;100524.34;5095775;28;20288;-88
2022/07/02 01:42:15;;;;;;;1.92;0.93;;;;;;;14.98;100.00;100508.72;5094296;28;20051;-88
2022/07/02 01:44:44;;;;;;;1.30;0.82;;;;;;;15.05;100.00;100525.88;5081007;28;20043;-88
2022/07/02 01:47:11;;;;;;;1.88;0.80;;;;;;;15.00;100.00;100507.69;5084695;28;20058;-88
2022/07/02 01:49:39;;;;;;;2.17;0.90;;;;;;;15.13;100.00;100525.41;5078005;28;20055;-88
2022/07/02 01:52:07;;;;;;;2.10;0.90;;;;;;;15.13;100.00;100517.50;5095060;28;20043;-88
2022/07/02 01:54:34;;;;;;;2.20;0.80;;;;;;;15.01;100.00;100500.63;5095483;28;20061;-88
2022/07/02 01:57:02;;;;;;;2.50;0.90;;;;;;;15.21;100.00;100525.81;5090486;28;20566;-88
2022/07/02 01:59:29;;;;;;;2.22;0.90;;;;;;;15.02;100.00;100509.41;5094987;28;20047;-88
2022/07/02 02:01:56;;;;;;;2.58;0.93;;;;;;;15.03;100.00;100503.16;5081022;28;20512;-88
2022/07/02 02:04:22;;;;;;;1.42;0.85;;;;;;;15.18;100.00;100486.41;5100732;28;20071;-89
2022/07/02 02:06:49;;;;;;;2.75;1.00;;;;;;;15.33;100.00;100472.31;5088877;28;20523;-89
2022/07/02 02:09:16;;;;;;;7.15;1.10;;;;;;;15.14;100.00;100437.47;5085625;28;20062;-88
2022/07/02 02:11:43;;;;;;;1.67;0.80;;;;;;;15.27;100.00;100483.22;5081159;28;20054;-88
2022/07/02 02:14:10;;;;;;;1.88;0.90;;;;;;;15.09;100.00;100476.44;5074615;28;20054;-88
2022/07/02 02:16:37;;;;;;;1.75;0.82;;;;;;;15.07;100.00;100488.84;5090229;28;20055;-88
2022/07/02 02:19:05;;;;;;;2.05;0.82;;;;;;;15.22;100.00;100497.63;5095240;28;20423;-88
2022/07/02 02:21:32;;;;;;;1.95;1.00;;;;;;;15.08;100.00;100486.13;5094397;28;20046;-88
2022/07/02 02:24:00;;;;;;;2.45;0.90;;;;;;;15.03;100.00;100489.97;5094678;28;20146;-88
2022/07/02 02:26:27;;;;;;;2.03;0.90;;;;;;;14.87;100.00;100477.72;5094871;28;20048;-88
2022/07/02 02:28:54;;;;;;;4.53;1.20;;;;;;;14.85;100.00;100503.31;5091116;28;20424;-88
2022/07/02 02:31:22;;;;;;;1.85;1.00;;;;;;;15.08;100.00;100474.72;5084050;28;20408;-89
2022/07/02 02:33:50;;;;;;;2.45;1.00;;;;;;;15.34;100.00;100492.44;5095371;28;20055;-88
2022/07/02 02:36:17;;;;;;;4.05;1.10;;;;;;;15.46;100.00;100484.75;5094942;28;20131;-88
2022/07/02 02:38:46;;;;;;;2.97;0.90;;;;;;;15.32;100.00;100490.84;5098583;28;20077;-88
2022/07/02 02:41:13;;;;;;;1.13;0.80;;;;;;;15.32;100.00;100488.22;5092498;28;20470;-88
2022/07/02 02:43:41;;;;;;;1.02;0.80;;;;;;;15.21;100.00;100495.94;5094491;28;20122;-88
2022/07/02 02:46:09;;;;;;;1.30;0.85;;;;;;;15.16;100.00;100488.31;5080767;28;20043;-88
2022/07/02 02:48:37;;;;;;;1.90;0.90;;;;;;;15.14;100.00;100490.19;5094841;28;20466;-88
2022/07/02 02:51:07;;;;;;;1.90;1.08;;;;;;;14.98;100.00;100496.38;5079561;28;20093;-88
2022/07/02 02:53:34;;;;;;;2.92;1.15;;;;;;;14.93;100.00;100479.16;5094965;28;20130;-88
2022/07/02 02:56:02;;;;;;;3.70;1.20;;;;;;;14.75;100.00;100473.16;5110383;28;20066;-88
2022/07/02 02:58:29;;;;;;;3.08;1.17;;;;;;;14.65;100.00;100467.59;5094303;28;20050;-88
2022/07/02 03:00:56;;;;;;;6.32;1.80;;;;;;;14.17;100.00;100441.34;5095047;28;20051;-89
2022/07/02 03:03:23;;;;;;;6.63;1.88;;;;;;;14.18;100.00;100458.88;5094213;28;20135;-88
2022/07/02 03:05:50;;;;;;;7.22;2.08;;;;;;;14.05;100.00;100471.00;5094652;28;20079;-88
2022/07/02 03:08:17;;;;;;;3.72;1.30;;;;;;;14.33;100.00;100483.47;5089919;28;20044;-88
2022/07/02 03:10:43;;;;;;;5.00;1.58;;;;;;;14.25;100.00;100475.13;5106436;28;20047;-88
2022/07/02 03:13:10;;;;;;;5.80;1.60;;;;;;;14.31;100.00;100461.63;5093847;28;20467;-89
2022/07/02 03:15:37;;;;;;;7.80;1.92;;;;;;;14.49;100.00;100486.06;5098206;28;20039;-89
2022/07/02 03:18:04;;;;;;;4.90;1.30;;;;;;;14.31;100.00;100456.38;5116331;28;20051;-88
2022/07/02 03:20:31;;;;;;;6.00;1.60;;;;;;;14.54;100.00;100475.25;5093613;28;20134;-88
2022/07/02 03:22:59;;;;;;;4.75;1.73;;;;;;;14.60;100.00;100477.56;5083121;28;20044;-89
2022/07/02 03:25:27;;;;;;;4.30;1.52;;;;;;;14.57;100.00;100481.19;5091785;28;20051;-88
2022/07/02 03:27:54;;;;;;;5.25;1.40;;;;;;;14.46;100.00;100478.31;5092062;28;20081;-88
2022/07/02 03:30:21;;;;;;;6.75;1.52;;;;;;;14.40;100.00;100452.34;5101822;27;20062;-88
2022/07/02 03:32:48;;;;;;;6.18;2.00;;;;;;;14.44;100.00;100478.41;5098317;28;20047;-88
2022/07/02 03:35:14;;;;;;;4.80;1.65;;;;;;;14.46;100.00;100465.16;5102381;28;20414;-88
2022/07/02 03:37:41;;;;;;;3.03;1.20;;;;;;;14.70;100.00;100472.63;5097789;28;20050;-88
2022/07/02 03:40:08;;;;;;;5.55;1.38;;;;;;;14.50;100.00;100463.19;5094643;28;20496;-88
2022/07/02 03:42:36;;;;;;;6.50;1.70;;;;;;;14.78;100.00;100467.72;5115333;28;20054;-88
2022/07/02 03:45:03;;;;;;;4.60;1.45;;;;;;;14.55;100.00;100480.41;5097225;28;20074;-88
2022/07/02 03:47:30;;;;;;;4.43;1.35;;;;;;;14.74;100.00;100472.31;5083431;28;20408;-88
2022/07/02 03:49:57;;;;;;;5.53;1.30;;;;;;;14.70;100.00;100478.72;5089339;28;20040;-89
2022/07/02 03:52:23;;;;;;;3.92;1.38;;;;;;;14.38;100.00;100438.44;5091652;28;20069;-89
2022/07/02 03:54:50;;;;;;;3.47;1.30;;;;;;;14.64;100.00;100431.63;5097725;28;20408;-88
2022/07/02 03:57:17;;;;;;;7.25;1.67;;;;;;;14.41;100.00;100427.69;5092472;28;20055;-88
2022/07/02 03:59:44;;;;;;;8.55;1.75;;;;;;;14.65;100.00;100419.34;5096295;28;20859;-88
2022/07/02 04:02:10;;;;;;;4.38;1.42;;;;;;;14.58;100.00;100430.22;5096079;28;20040;-88
2022/07/02 04:04:37;;;;;;;6.07;1.50;;;;;;;14.56;100.00;100426.81;5098443;28;20067;-89
2022/07/02 04:07:04;;;;;;;5.60;1.30;;;;;;;14.50;100.00;100411.38;5104699;28;20062;-88
2022/07/02 04:09:31;;;;;;;5.50;1.50;;;;;;;14.64;100.00;100434.28;5097727;28;20131;-88
2022/07/02 04:11:58;;;;;;;6.78;1.30;;;;;;;14.86;100.00;100441.75;5097123;28;20048;-89
2022/07/02 04:14:24;;;;;;;6.50;1.30;;;;;;;14.84;100.00;100422.56;5096621;28;20047;-87
2022/07/02 04:16:51;;;;;;;5.53;1.52;;;;;;;14.45;100.00;100397.63;5082629;28;20366;-88
2022/07/02 04:19:18;;;;;;;4.95;1.48;;;;;;;14.57;100.00;100417.09;5084926;28;20131;-88
2022/07/02 04:21:45;;;;;;;3.97;1.50;;;;;;;15.02;100.00;100399.50;5086358;28;20070;-88
2022/07/02 04:24:11;;;;;;;10.25;1.98;;;;;;;14.71;100.00;100382.06;5115068;28;20070;-88
2022/07/02 04:26:38;;;;;;;3.47;1.20;;;;;;;14.76;100.00;100382.63;5095436;28;20048;-88
2022/07/02 04:29:05;;;;;;;6.20;1.55;;;;;;;14.95;100.00;100419.28;5091453;28;20131;-88
2022/07/02 04:31:32;;;;;;;4.20;1.30;;;;;;;14.75;100.00;100379.16;5080218;28;20046;-88
2022/07/02 04:33:58;;;;;;;7.35;1.42;;;;;;;14.71;100.00;100376.78;5082373;28;20052;-88
2022/07/02 04:36:25;;;;;;;7.70;1.77;;;;;;;14.98;100.00;100413.81;5105048;28;20054;-88
2022/07/02 04:38:52;;;;;;;4.95;1.30;;;;;;;15.08;100.00;100412.28;5091877;28;20047;-88
2022/07/02 04:41:19;;;;;;;4.00;1.27;;;;;;;15.37;100.00;100428.97;5096605;28;20401;-88
2022/07/02 04:43:46;;;;;;;6.50;1.30;;;;;;;15.49;100.00;100415.94;5096615;28;20043;-88
2022/07/02 04:46:12;;;;;;;5.72;1.27;;;;;;;15.51;100.00;100406.13;5094579;28;20428;-89
2022/07/02 04:48:39;;;;;;;5.70;1.60;;;;;;;15.34;100.00;100397.47;5088259;28;20126;-88
2022/07/02 04:51:06;;;;;;;8.18;1.50;;;;;;;15.26;100.00;100435.84;5082160;28;20062;-88
2022/07/02 04:53:33;;;;;;;5.53;1.30;;;;;;;14.98;100.00;100382.19;5087315;28;20105;-89
2022/07/02 04:56:00;;;;;;;4.53;1.30;;;;;;;16.50;100.00;100398.78;5089878;28;20401;-88
2022/07/02 04:58:26;;;;;;;3.47;1.20;;;;;;;16.49;100.00;100388.31;5083681;28;20047;-89
2022/07/02 05:00:53;;;;;;;5.90;1.63;;;;;;;16.24;100.00;100395.25;5095965;28;20138;-89
2022/07/02 05:03:20;;;;;;;5.70;1.20;;;;;;;15.99;100.00;100384.59;5094821;28;20047;-89
2022/07/02 05:05:47;;;;;;;3.60;1.20;;;;;;;15.56;100.00;100369.72;5103826;28;20066;-89
2022/07/02 05:08:14;;;;;;;5.57;1.20;;;;;;;15.56;100.00;100375.88;5114591;28;20047;-88
2022/07/02 05:10:41;;;;;;;7.78;1.90;;;;;;;15.54;100.00;100398.84;5095567;28;20051;-89
2022/07/02 05:13:08;;;;;;;3.38;1.30;;;;;;;15.56;100.00;100407.53;5112779;28;20048;-88
2022/07/02 05:15:41;;;;;;;;;;;;;;;15.56;100.00;100415.47;5097102;28;20362;-88
2022/07/02 05:18:08;;;;;;;3.53;1.33;;;;;;;15.38;100.00;100395.50;5099127;28;19924;-88
2022/07/02 05:20:35;;;;;;;6.10;1.45;;;;;;;15.48;100.00;100395.78;5094332;28;20046;-88
2022/07/02 05:23:02;;;;;;;5.05;1.40;;;;;;;15.87;100.00;100378.34;5092006;28;20101;-89
2022/07/02 05:25:29;;;;;;;5.95;1.50;;;;;;;16.10;100.00;100417.28;5095202;28;20086;-89
2022/07/02 05:27:55;;;;;;;8.40;1.92;;;;;;;15.68;100.00;100397.13;5095589;28;20394;-89
2022/07/02 05:30:22;;;;;;;6.40;1.77;;;;;;;15.55;100.00;100386.53;5094805;28;20051;-88
2022/07/02 05:32:49;;;;;;;6.75;1.33;;;;;;;15.77;100.00;100382.53;5099848;28;20188;-88
2022/07/02 05:35:17;;;;;;;6.05;1.60;;;;;;;16.16;100.00;100402.81;5119537;28;20082;-88
2022/07/02 05:37:43;;;;;;;4.00;1.15;;;;;;;16.24;100.00;100379.41;5086078;28;20036;-88
2022/07/02 05:40:11;;;;;;;11.02;2.20;;;;;;;16.58;100.00;100394.78;5119138;28;20100;-88
2022/07/02 05:42:38;;;;;;;7.85;2.13;;;;;;;17.10;100.00;100366.53;5096333;28;20054;-88
2022/07/02 05:45:05;;;;;;;6.00;1.88;;;;;;;16.53;100.00;100360.72;5090693;28;20055;-88
2022/07/02 05:47:32;;;;;;;7.38;2.10;;;;;;;16.40;100.00;100367.81;5118226;28;20134;-88
2022/07/02 05:49:59;;;;;;;7.47;1.58;;;;;;;16.08;100.00;100344.41;5100181;28;20047;-88
2022/07/02 05:52:25;;;;;;;5.95;1.38;;;;;;;16.24;100.00;100387.31;5095529;28;20485;-88
2022/07/02 05:54:52;;;;;;;8.30;1.80;;;;;;;15.78;100.00;100358.69;5079817;28;20055;-88
2022/07/02 05:57:19;;;;;;;5.47;1.40;;;;;;;15.92;100.00;100360.41;5092720;28;20044;-88
2022/07/02 05:59:46;;;;;;;5.43;1.33;;;;;;;16.15;100.00;100395.88;5098956;28;20492;-87
2022/07/02 06:02:13;;;;;;;6.68;1.30;;;;;;;15.94;100.00;100371.72;5098258;28;20123;-88
2022/07/02 06:04:39;;;;;;;7.68;1.80;;;;;;;15.45;100.00;100386.25;5099589;28;20481;-88
2022/07/02 06:09:52;;;;;;;7.72;1.77;;;;;;;15.59;100.00;100360.78;5106089;28;20044;-88
2022/07/02 06:12:19;;;;;;;7.38;1.75;;;;;;;15.50;100.00;100355.16;5099098;28;20060;-88
2022/07/02 06:14:46;;;;;;;7.68;1.83;;;;;;;15.73;100.00;100366.84;5084420;28;20062;-88
2022/07/02 06:17:12;;;;;;;6.20;1.40;;;;;;;15.73;100.00;100374.78;5109439;28;20126;-88
2022/07/02 06:19:39;;;;;;;3.83;1.20;;;;;;;15.64;100.00;100333.16;5109447;28;20541;-88
2022/07/02 06:22:06;;;;;;;8.13;1.90;;;;;;;15.38;100.00;100355.94;5096818;28;20474;-88
2022/07/02 06:24:34;;;;;;;6.93;1.73;;;;;;;15.55;100.00;100337.22;5086521;28;20048;-87
2022/07/02 06:27:00;;;;;;;6.82;1.58;;;;;;;15.80;100.00;100330.38;5091455;28;20048;-88
2022/07/02 06:29:27;;;;;;;7.07;2.00;;;;;;;15.75;100.00;100329.84;5096433;28;20043;-88
2022/07/02 06:31:54;;;;;;;7.40;1.50;;;;;;;15.87;100.00;100322.91;5096474;28;20396;-88
2022/07/02 06:34:21;;;;;;;4.78;1.38;;;;;;;15.59;100.00;100327.31;5090888;28;20048;-88
2022/07/02 06:36:48;;;;;;;9.30;2.10;;;;;;;15.29;100.00;100333.63;5088305;28;20463;-88
2022/07/02 06:39:14;;;;;;;6.05;1.65;;;;;;;15.48;100.00;100330.66;5112360;28;20050;-88
2022/07/02 06:44:26;;;;;;;7.65;1.70;;;;;;;15.73;100.00;100377.41;5098884;28;20209;-88
2022/07/02 06:46:53;;;;;;;5.65;1.50;;;;;;;15.93;100.00;100360.28;5095638;28;20047;-88
2022/07/02 06:49:20;;;;;;;6.90;1.85;;;;;;;15.84;100.00;100352.16;5084042;28;20056;-88
2022/07/02 06:51:47;;;;;;;6.70;1.70;;;;;;;15.69;100.00;100333.69;5100220;28;20046;-88
2022/07/02 06:54:13;;;;;;;7.55;1.77;;;;;;;15.49;100.00;100327.09;5118202;28;20544;-88
2022/07/02 06:56:40;;;;;;;6.57;2.10;;;;;;;15.18;100.00;100339.59;5092112;28;20095;-88
2022/07/02 06:59:07;;;;;;;6.90;1.63;;;;;;;15.18;100.00;100350.13;5092760;28;20503;-88
2022/07/02 07:01:34;;;;;;;6.20;1.58;;;;;;;15.22;100.00;100316.50;5097669;28;20135;-88
2022/07/02 07:04:07;;;;;;;6.63;2.00;;;;;;;15.18;100.00;100326.41;5100321;28;20079;-87
2022/07/02 07:06:38;;;;;;;5.50;1.40;;;;;;;15.46;100.00;100344.91;5099029;28;20122;-88
2022/07/02 07:09:05;;;;;;;8.43;1.80;;;;;;;16.02;100.00;100348.28;5099082;28;20043;-88
2022/07/02 07:11:31;;;;;;;8.65;2.10;;;;;;;16.08;100.00;100371.66;5116885;28;20050;-88
2022/07/02 07:13:58;;;;;;;5.18;1.63;;;;;;;16.02;100.00;100339.50;5098700;28;20055;-88
2022/07/02 07:16:25;;;;;;;6.75;1.52;;;;;;;16.30;100.00;100375.50;5099175;28;20043;-89
2022/07/02 07:21:28;;;;;;;9.95;2.03;;;;;;;16.05;100.00;100344.59;5114226;28;20043;-88
2022/07/02 07:23:55;;;;;;;5.00;1.50;;;;;;;16.50;100.00;100348.56;5095014;28;20040;-87
2022/07/02 07:26:22;;;;;;;4.50;1.17;;;;;;;16.65;100.00;100353.75;5088713;28;20043;-88
2022/07/02 07:28:48;;;;;;;5.63;1.42;;;;;;;16.58;100.00;100348.03;5082666;28;20056;-88
2022/07/02 07:31:21;;;;;;;6.15;1.63;;;;;;;16.84;100.00;100362.13;5116478;28;20044;-88
2022/07/02 07:33:53;;;;;;;3.53;1.10;;;;;;;16.80;100.00;100323.63;5097870;28;20051;-88
2022/07/02 07:36:23;;;;;;;4.22;1.30;;;;;;;17.13;100.00;100379.56;5096084;28;20048;-88
2022/07/02 07:38:51;;;;;;;5.68;1.38;;;;;;;17.06;100.00;100382.59;5111955;28;20130;-87
2022/07/02 07:41:20;;;;;;;7.00;1.90;;;;;;;16.81;100.00;100372.88;5099410;28;20051;-87
2022/07/02 07:43:47;;;;;;;6.80;1.65;;;;;;;16.67;100.00;100367.69;5102307;28;20060;-88
2022/07/02 07:46:15;;;;;;;9.77;1.95;;;;;;;16.71;100.00;100353.31;5097651;28;20054;-88
2022/07/02 07:48:42;;;;;;;5.63;1.63;;;;;;;16.80;100.00;100334.19;5097725;28;20055;-87
2022/07/02 07:51:12;;;;;;;4.32;1.40;;;;;;;16.51;100.00;100358.19;5115754;28;20595;-88
2022/07/02 07:53:39;;;;;;;4.50;1.20;;;;;;;17.47;100.00;100377.97;5098026;28;20051;-87
2022/07/02 07:56:06;;;;;;;4.78;1.30;;;;;;;17.52;100.00;100365.25;5083867;28;20058;-86
2022/07/02 07:58:34;;;;;;;4.70;1.30;;;;;;;17.60;100.00;100351.44;5115023;28;20047;-87
2022/07/02 08:01:01;;;;;;;5.68;1.70;;;;;;;17.15;100.00;100346.72;5095109;28;20082;-87
2022/07/02 08:03:28;;;;;;;5.32;1.63;;;;;;;17.20;100.00;100333.19;5097530;28;20473;-87
2022/07/02 08:05:56;;;;;;;5.35;1.48;;;;;;;17.45;100.00;100342.84;5098035;28;20143;-86
2022/07/02 08:08:23;;;;;;;3.70;1.15;;;;;;;17.50;100.00;100366.34;5101531;28;20055;-87
2022/07/02 08:10:50;;;;;;;4.65;1.45;;;;;;;17.39;100.00;100341.47;5115751;28;20491;-88
2022/07/02 08:13:17;;;;;;;6.88;1.30;;;;;;;17.68;100.00;100366.78;5114913;28;20478;-87
2022/07/02 08:15:44;;;;;;;6.15;1.10;;;;;;;17.88;100.00;100360.88;5104807;28;20058;-88
2022/07/02 08:18:11;;;;;;;5.60;1.15;;;;;;;17.14;100.00;100341.53;5094547;28;20131;-87
2022/07/02 08:20:38;;;;;;;5.97;1.50;;;;;;;17.02;100.00;100335.34;5115738;28;20050;-88
2022/07/02 08:23:12;;;;;;;5.43;1.20;;;;;;;17.48;100.00;100310.84;5097799;28;20139;-87
2022/07/02 08:25:39;;;;;;;7.65;1.40;;;;;;;16.76;100.00;100340.63;5094932;28;20054;-88
2022/07/02 08:28:06;;;;;;;5.05;1.52;;;;;;;17.24;100.00;100339.94;5097500;28;20501;-87
2022/07/02 08:30:32;;;;;;;7.13;1.52;;;;;;;17.44;100.00;100314.66;5115265;28;20135;-87
2022/07/02 08:32:59;;;;;;;6.72;1.58;;;;;;;17.44;100.00;100331.41;5106167;28;20051;-86
2022/07/02 08:35:26;;;;;;;5.28;1.42;;;;;;;17.46;100.00;100371.00;5091171;28;20479;-87
2022/07/02 08:37:53;;;;;;;3.72;1.27;;;;;;;16.95;100.00;100310.28;5083682;28;20058;-88
2022/07/02 08:40:22;;;;;;;4.07;1.23;;;;;;;17.44;100.00;100365.81;5097278;28;20115;-87
2022/07/02 08:42:52;;;;;;;6.88;1.58;;;;;;;17.32;100.00;100340.25;5085313;28;20048;-87
2022/07/02 08:45:21;;;;;;;4.10;1.27;;;;;;;17.16;100.00;100366.13;5088856;28;20052;-88
2022/07/02 08:47:51;;;;;;;3.92;1.30;;;;;;;16.83;100.00;100314.59;5101000;28;20481;-87
2022/07/02 08:50:20;;;;;;;4.90;1.33;;;;;;;17.06;100.00;100323.59;5096421;28;20054;-88
2022/07/02 08:52:50;;;;;;;2.90;1.13;;;;;;;17.08;100.00;100346.31;5096116;28;20043;-87
2022/07/02 08:55:21;;;;;;;4.05;1.20;;;;;;;16.77;100.00;100371.41;5097238;28;20052;-87
2022/07/02 08:57:49;;;;;;;4.90;1.20;;;;;;;16.41;100.00;100340.41;5083168;28;20054;-87
2022/07/02 09:00:19;;;;;;;3.17;1.00;;;;;;;16.27;100.00;100357.19;5115595;28;20074;-85
2022/07/02 09:02:49;;;;;;;4.90;1.38;;;;;;;16.32;100.00;100374.47;5114284;28;20047;-85
2022/07/02 09:05:18;;;;;;;6.13;1.35;;;;;;;16.02;100.00;100340.34;5085437;28;20468;-85
2022/07/02 09:07:46;;;;;;;5.47;1.08;;;;;;;15.75;100.00;100332.47;5096992;28;20123;-86
2022/07/02 09:10:13;;;;;;;3.05;1.20;;;;;;;16.16;100.00;100325.41;5114788;28;20495;-86
2022/07/02 09:12:40;;;;;;;4.63;1.48;;;;;;;15.77;100.00;100364.06;5113490;28;20051;-85
2022/07/02 09:15:08;;;;;;;3.05;1.00;;;;;;;15.80;100.00;100333.03;5095559;28;20047;-85
2022/07/02 09:17:35;;;;;;;2.95;1.00;;;;;;;15.93;100.00;100351.53;5083811;28;20044;-86
2022/07/02 09:20:04;;;;;;;3.10;0.90;;;;;;;15.97;100.00;100342.47;5093850;28;20046;-86
2022/07/02 09:22:35;;;;;;;4.53;1.17;;;;;;;15.69;100.00;100309.94;5087166;28;20473;-86
2022/07/02 09:25:08;;;;;;;2.17;0.90;;;;;;;16.38;100.00;100359.97;5096365;28;20828;-85
2022/07/02 09:27:35;;;;;;;3.70;1.00;;;;;;;16.20;100.00;100348.88;5082169;28;20122;-85
2022/07/02 09:30:04;;;;;;;2.58;1.02;;;;;;;15.91;100.00;100330.50;5095965;28;20052;-84
2022/07/02 09:32:44;;;;;;;2.58;0.90;;;;;;;16.06;100.00;100356.84;5095604;28;20074;-84
2022/07/02 09:35:21;;;;;;;3.42;0.88;;;;;;;16.42;100.00;100364.09;5090624;28;20052;-84
2022/07/02 09:37:50;;;;;;;1.75;0.80;;;;;;;16.11;100.00;100360.88;5082113;28;20533;-84
2022/07/02 09:40:17;;;;;;;4.30;1.10;;;;;;;15.66;100.00;100333.88;5113707;28;20047;-84
2022/07/02 09:42:46;;;;;;;2.92;1.00;;;;;;;15.81;100.00;100349.69;5090029;28;20047;-85
2022/07/02 09:45:15;;;;;;;2.30;1.00;;;;;;;15.61;100.00;100356.25;5095305;28;20055;-84
2022/07/02 09:47:49;;;;;;;3.00;1.00;;;;;;;15.70;100.00;100367.03;5091163;28;20044;-84
2022/07/02 09:50:18;;;;;;;2.35;0.90;;;;;;;15.83;100.00;100346.03;5093178;28;20468;-85
2022/07/02 09:52:55;;;;;;;1.63;0.80;;;;;;;16.05;100.00;100365.72;5107005;28;20396;-84
2022/07/02 09:55:30;;;;;;;2.47;1.10;;;;;;;15.83;100.00;100364.50;5095826;28;20553;-85
2022/07/02 09:58:01;;;;;;;2.20;0.88;;;;;;;15.84;100.00;100338.94;5095383;28;20054;-83
2022/07/02 10:00:31;;;;;;;3.13;1.10;;;;;;;15.69;100.00;100331.06;5113571;28;20047;-83
2022/07/02 10:03:00;;;;;;;3.28;1.13;;;;;;;15.70;100.00;100351.22;5112712;28;20397;-83
2022/07/02 10:05:29;;;;;;;2.85;1.00;;;;;;;15.81;100.00;100355.84;5081354;28;20130;-81
2022/07/02 10:07:57;;;;;;;2.80;1.08;;;;;;;15.65;100.00;100357.75;5106720;28;20144;-82
2022/07/02 10:10:39;;;;;;;4.60;1.23;;;;;;;15.54;100.00;100361.91;5077094;28;20046;-82
2022/07/02 10:13:08;;;;;;;6.22;1.75;;;;;;;15.49;100.00;100319.19;5108282;28;20098;-82
2022/07/02 10:15:39;;;;;;;3.85;1.25;;;;;;;15.81;100.00;100350.56;5103796;28;20466;-82
2022/07/02 10:18:06;;;;;;;4.07;1.30;;;;;;;15.46;100.00;100329.09;5108706;28;20760;-82
2022/07/02 10:20:34;;;;;;;4.95;1.35;;;;;;;15.54;100.00;100350.53;5108332;28;20050;-83
2022/07/02 10:23:03;;;;;;;4.45;1.38;;;;;;;15.22;100.00;100336.75;5107775;28;20050;-83
2022/07/02 10:25:33;;;;;;;3.08;1.10;;;;;;;15.45;100.00;100317.66;5077432;28;20048;-82
2022/07/02 10:28:00;;;;;;;3.42;1.23;;;;;;;15.36;100.00;100316.47;5084438;28;20053;-83
2022/07/02 10:30:32;;;;;;;3.03;1.20;;;;;;;15.35;100.00;100345.56;5110711;28;20048;-82
2022/07/02 10:33:24;;;;;;;4.10;1.33;;;;;;;15.85;100.00;100354.69;5107871;28;20533;-82
2022/07/02 10:35:51;;;;;;;3.97;1.30;;;;;;;15.83;100.00;100368.91;5097037;28;20134;-83
2022/07/02 10:38:29;;;;;;;3.25;1.27;;;;;;;15.72;100.00;100357.25;5100875;28;20067;-84
2022/07/02 10:40:56;;;;;;;4.90;1.23;;;;;;;15.59;100.00;100366.91;5097287;28;20043;-83
2022/07/02 10:43:26;;;;;;;4.18;1.40;;;;;;;15.34;100.00;100335.97;5085418;28;20054;-83
2022/07/02 10:46:10;;;;;;;4.80;1.17;;;;;;;15.61;100.00;100356.25;5117807;28;20043;-83
2022/07/02 10:48:57;;;;;;;5.13;1.20;;;;;;;15.70;100.00;100363.56;5098011;28;20047;-83
2022/07/02 10:51:24;;;;;;;2.17;1.02;;;;;;;15.74;100.00;100355.41;5080757;28;20054;-85
2022/07/02 10:54:07;;;;;;;3.17;1.27;;;;;;;15.51;100.00;100340.16;5082011;28;20089;-84
2022/07/02 10:56:54;;;;;;;2.40;1.17;;;;;;;15.53;100.00;100335.66;5081678;28;20473;-83
2022/07/02 10:59:33;;;;;;;10.13;1.58;;;;;;;15.60;100.00;100344.00;5094669;28;20043;-84
2022/07/02 11:02:05;;;;;;;3.53;1.20;;;;;;;15.53;100.00;100369.94;5093692;28;20044;-82
2022/07/02 11:04:32;;;;;;;2.65;1.00;;;;;;;15.55;100.00;100363.63;5077423;28;20098;-84
2022/07/02 11:07:11;;;;;;;2.05;1.05;;;;;;;15.70;100.00;100364.41;5101041;28;20535;-84
2022/07/02 11:10:01;;;;;;;4.10;1.38;;;;;;;15.45;100.00;100336.13;5095056;28;20047;-84
2022/07/02 11:12:52;;;;;;;5.20;1.20;;;;;;;15.49;100.00;100318.31;5094120;28;20062;-84
2022/07/02 11:15:25;;;;;;;4.38;1.35;;;;;;;15.44;100.00;100337.09;5099382;28;20044;-84
2022/07/02 11:17:57;;;;;;;3.55;1.33;;;;;;;15.78;100.00;100360.47;5094485;28;20051;-84
2022/07/02 11:20:27;;;;;;;3.85;1.50;;;;;;;15.53;100.00;100336.50;5112472;28;20040;-85
2022/07/02 11:22:57;;;;;;;4.85;1.58;;;;;;;15.41;100.00;100321.44;5090080;28;20083;-85
2022/07/02 11:25:27;;;;;;;2.58;1.05;;;;;;;15.54;100.00;100318.84;5092927;28;20058;-85
2022/07/02 11:27:59;;;;;;;2.72;1.10;;;;;;;15.70;100.00;100364.41;5101347;28;20126;-85
2022/07/02 11:30:28;;;;;;;4.05;1.60;;;;;;;14.96;100.00;100318.13;5112279;28;20096;-85
2022/07/02 11:32:55;;;;;;;5.35;1.95;;;;;;;15.06;100.00;100337.72;5094164;28;20126;-85
2022/07/02 11:35:22;;;;;;;3.65;1.40;;;;;;;15.27;100.00;100363.69;5082535;28;20203;-84